x

8452944 - Conimicut Light, Ri (cptr1) Weather Station

5:54 - Tue 25th Apr 2017 All times are EDT. -4 hours from GMT.

  • Wind
    11mph, 14mph gusts
  • Sea Temp 51°f
  • Aire Temp 50°f
  • Sea Pressure 1022.2mb
  • 8452944 - Conimicut Light, Ri
  • 8452944 - Conimicut Light, Ri

More Historic Weather Station data

Upgrade to MSW Pro to gain access to the past 30 days of data for over 8000 Wavebouys and Weather Stations around the globe.

Join Pro

Comparision Forecast

View Surf forecast
   
mar 04/25 5:54 11 14 mph 1022.2mb 51f 50f
5:48 11 14 mph 1022.2mb 50f 50f
5:42 11 14 mph 1022.2mb 50f 50f
5:36 11 15 mph 1022.2mb 50f 50f
5:30 10 13 mph 1022.2mb 50f 50f
5:24 11 13 mph 1022mb 50f 50f
5:18 10 14 mph 1022.1mb 50f 50f
5:12 11 14 mph 1022.1mb 50f 50f
5:06 13 15 mph 1022mb 50f 50f
5:00 13 15 mph 1022mb 51f 50f
4:54 14 17 mph 1021.9mb 51f 50f
4:48 15 17 mph 1021.8mb 51f 50f
4:42 14 16 mph 1021.7mb 51f 50f
4:36 14 16 mph 1021.7mb 51f 50f
4:30 13 15 mph 1021.7mb 51f 50f
4:24 13 15 mph 1021.7mb 51f 50f
4:18 10 13 mph 1021.7mb 51f 50f
4:12 9 14 mph 1021.8mb 51f 50f
4:06 10 13 mph 1021.8mb 51f 50f
4:00 8 10 mph 1021.9mb 51f 50f
3:54 8 10 mph 1021.9mb 51f 50f
3:48 7 10 mph 1021.9mb 51f 50f
3:42 8 11 mph 1021.9mb 51f 50f
3:36 6 9 mph 1021.9mb 51f 50f
3:30 6 9 mph 1021.9mb 51f 50f
3:24 8 10 mph 1022mb 51f 50f
3:18 8 10 mph 1022mb 51f 50f
3:12 8 11 mph 1022.1mb 51f 50f
3:06 10 11 mph 1022.2mb 51f 50f
3:00 9 10 mph 1022.2mb 51f 50f
2:54 8 10 mph 1022.3mb 51f 50f
2:48 8 11 mph 1022.2mb 51f -
2:42 9 10 mph 1022.3mb 51f -
2:36 9 10 mph 1022.3mb 51f -
2:30 8 9 mph 1022.3mb 51f 50f
2:24 8 9 mph 1022.3mb 51f 50f
2:18 7 9 mph 1022.3mb 51f 50f
2:12 7 8 mph 1022.3mb 51f 50f
2:06 6 8 mph 1022.4mb 51f 50f
2:00 6 7 mph 1022.4mb 51f 50f
1:54 5
mph
1022.4mb 51f 50f
1:48 5 6 mph 1022.5mb 51f 50f
1:42 6
mph
1022.5mb 51f 50f
1:36 6
mph
1022.4mb 51f 50f
1:30 5 6 mph 1022.4mb 51f 50f
1:24 5
mph
1022.4mb 51f 50f
1:18 2
mph
1022.4mb 51f 50f
1:12  -  2 mph 1022.4mb 51f 50f
1:06 2 3 mph 1022.4mb 51f 50f
1:00 2 3 mph 1022.3mb 51f 50f
12:54 3 5 mph 1022.3mb 51f 49f
12:48 3 5 mph 1022.3mb 51f 49f
12:42 2 3 mph 1022.3mb 51f 50f
12:36 2 3 mph 1022.2mb 51f 50f
12:30 2 3 mph 1022.2mb 51f 50f
12:24 2
mph
1022.3mb 51f 49f
12:18 2 3 mph 1022.3mb 51f 49f
12:12 3
mph
1022.3mb 51f 49f
12:06 3
mph
1022.3mb 51f 49f
12:00 2
mph
1022.3mb 51f 49f
lun 04/24 11:54 2 3 mph 1022.4mb 51f 49f
11:48 3
mph
1022.4mb 51f 49f
11:42 3
mph
1022.4mb 51f 49f
11:36 3
mph
1022.4mb 51f 49f
11:30 3
mph
1022.5mb 51f 49f
11:24 3
mph
1022.4mb 51f 49f
11:18 3 5 mph 1022.3mb 51f 49f
11:12 3 5 mph 1022.3mb 51f 49f
11:06 3 5 mph 1022.3mb 50f 49f
11:00 3
mph
1022.3mb 50f 49f
10:54 3 5 mph 1022.3mb 50f 49f
10:48 3
mph
1022.3mb 50f 49f
10:42 1 2 mph 1022.3mb 50f 49f
10:36 2 3 mph 1022.3mb 50f 49f
10:30 2 3 mph 1022.4mb 50f 49f
10:24 1 2 mph 1022.4mb 50f 49f
10:18 1 2 mph 1022.5mb 50f 49f
10:12  -  mph 1022.6mb 50f 49f
10:06  -  mph 1022.6mb 50f 49f
10:00  -  2 mph 1022.5mb 50f 49f
9:48 2
mph
1022.5mb 50f 49f
9:42 2 3 mph 1022.5mb 50f 49f
9:36 1 2 mph 1022.6mb 50f 49f
9:30 1 3 mph 1022.6mb 50f 49f
9:24 3 5 mph 1022.5mb 50f 49f
9:18 3
mph
1022.5mb 50f 49f
9:12 2 3 mph 1022.6mb 50f 49f
9:06 3
mph
1022.7mb 50f 49f
9:00 2 3 mph 1022.7mb 50f 49f
8:48 3 5 mph 1022.6mb 51f 49f
8:42 2 3 mph 1022.7mb 51f 49f
8:36 3 5 mph 1022.8mb 51f 49f
8:30 5
mph
1022.7mb 51f 49f
8:24 5 6 mph 1022.7mb 50f 49f
8:18 6
mph
1022.5mb 50f 49f
8:12 6
mph
1022.5mb 50f 49f
8:06 6
mph
1022.5mb 50f 49f
8:00 7 8 mph 1022.4mb 50f 49f
7:48 8 9 mph 1022.1mb 50f 49f
7:42 8 11 mph 1022.2mb 50f 49f
7:36 11 14 mph 1022.3mb 50f 49f
7:30 13 14 mph 1022.2mb 50f 48f
7:24 9 10 mph 1022.3mb 50f 48f
7:12 8 10 mph 1022.3mb 50f 49f
7:06 11
mph
1022.2mb 50f 49f
7:00 11 13 mph 1021.9mb 50f 49f
6:48 10 11 mph 1021.8mb 50f 49f
6:42 11 14 mph 1021.7mb 50f 49f
6:36 14
mph
1021.7mb 50f 49f
6:30 14 15 mph 1021.8mb 50f 49f
6:24 14 15 mph 1021.9mb 50f 49f
6:18 13
mph
1021.9mb 50f 49f
6:12 13 14 mph 1022mb 50f 49f
6:06 11 14 mph 1022mb 50f 50f
6:00 13 14 mph 1021.9mb 50f 50f
5:48 14 17 mph 1021.6mb 50f 49f
5:42 17
mph
1021.5mb 50f 49f
5:36 16 17 mph 1021.5mb 50f 50f
5:30 16
mph
1021.7mb 50f 50f
5:24 15
mph
1021.5mb 50f 50f
5:18 15 16 mph 1021.5mb 50f 50f
5:12 14 15 mph 1021.5mb 50f 50f
5:06 15 16 mph 1021.5mb 50f 50f
5:00 14
mph
1021.5mb 50f 51f
4:54 13 14 mph 1021.6mb 50f 51f
4:48 7 8 mph 1021.7mb 50f 51f
4:42 5 6 mph 1021.7mb 50f 51f
4:36 6 7 mph 1021.6mb 50f 51f
4:30 7
mph
1021.6mb 50f 51f
4:24 7
mph
1021.5mb 50f 51f
4:18 7 10 mph 1021.4mb 50f 51f
4:12 10
mph
1021.2mb 50f 51f
4:06 9 10 mph 1021.3mb 50f 52f
4:00 9 10 mph 1021.4mb 50f 51f
3:54 10 13 mph 1021.3mb 50f 51f
3:48 13 15 mph 1021.3mb 50f 51f
3:42 16 17 mph 1021.2mb 50f 52f
3:36 16 17 mph 1021.3mb 50f 51f
3:30 16
mph
1021.3mb 50f 51f
3:24 15 16 mph 1021.4mb 50f 52f
3:18 15 16 mph 1021.5mb 50f 52f
3:12 16 17 mph 1021.5mb 50f 51f
3:06 16
mph
1021.6mb 50f 51f
3:00 15 16 mph 1021.7mb 50f 51f
2:54 14 16 mph 1021.8mb 50f 51f
2:48 15
mph
1021.8mb 50f 51f
2:42 14 16 mph 1021.9mb 50f 51f
2:36 16 17 mph 1021.9mb 50f 52f
2:30 16 17 mph 1021.8mb 50f 51f
2:24 16 17 mph 1021.8mb 50f 51f
2:18 15 16 mph 1021.9mb 50f 51f
2:12 15 16 mph 1022mb 50f 51f
2:06 13 16 mph 1022.1mb 50f 51f
2:00 15 17 mph 1022.1mb 50f 51f
1:54 16 18 mph 1022.1mb 50f 50f
1:48 17 20 mph 1021.9mb 50f 50f
1:42 18 20 mph 1021.9mb 50f 50f
1:36 18 20 mph 1021.8mb 50f 51f
1:30 20 21 mph 1021.7mb 50f 52f
1:24 18 20 mph 1021.8mb 50f 52f
1:18 18 21 mph 1021.7mb 50f 52f
1:12 20 21 mph 1021.7mb 50f 52f
1:06 20 21 mph 1021.8mb 50f 51f
1:00 18 20 mph 1021.7mb 50f 51f
12:54 13 15 mph 1021.7mb 50f 51f
12:48 14
mph
1021.7mb 50f 50f
12:42 11 13 mph 1021.7mb 50f 50f
12:36 9 10 mph 1021.7mb 49f 51f
12:30 10 11 mph 1021.7mb 49f 52f
12:24 8 10 mph 1021.7mb 49f 52f
12:18 11 13 mph 1021.8mb 49f 52f
12:12 14
mph
1021.8mb 49f 52f
12:06 13
mph
1021.8mb 49f 52f
12:00 11
mph
1021.8mb 49f 52f
11:54 11 13 mph 1021.9mb 49f 52f
11:48 9 13 mph 1022mb 49f 52f
11:42 11 13 mph 1022mb 49f 52f
11:36 11
mph
1022.1mb 49f 52f
11:30 10
mph
1022.2mb 49f 52f
11:24 10
mph
1022.1mb 49f 52f
11:18 9 10 mph 1022.1mb 49f 51f
11:12 10 13 mph 1022.2mb 49f 51f
11:06 13
mph
1022.3mb 49f 51f
11:00 11
mph
1022.2mb 49f 51f
10:54 11 13 mph 1022.2mb 49f 51f
10:48 10 11 mph 1022.2mb 49f 51f
10:42 11
mph
1022.2mb 49f 50f
10:36 11
mph
1022.3mb 49f 50f
10:30 10 11 mph 1022.3mb 49f 50f
10:24 10
mph
1022.3mb 49f 49f
10:18 8 9 mph 1022.3mb 49f 49f
10:12 9
mph
1022.3mb 49f 50f
10:06 8 9 mph 1022.3mb 49f 50f
10:00 8 11 mph 1022.3mb 49f 49f
9:54 9 10 mph 1022.2mb 49f 49f
9:48 9 10 mph 1022.2mb 49f 49f
9:42 10 13 mph 1022.2mb 49f 49f
9:36 11 13 mph 1022.1mb 49f 49f
9:30 10 13 mph 1022.1mb 49f 48f
9:24 11 13 mph 1022.1mb 49f 48f
9:18 10 11 mph 1022.1mb 49f 48f
9:12 10 11 mph 1022.1mb 49f 48f
9:06 10 11 mph 1022.1mb 49f 47f
9:00 9 10 mph 1022.1mb 49f 47f
8:54 10 11 mph 1022.2mb 49f 47f
8:48 11 13 mph 1022.3mb 49f 47f
8:42 11
mph
1022.3mb 49f 46f
8:36 11 13 mph 1022.3mb 49f 46f
8:30 10 11 mph 1022.2mb 49f 46f
8:24 10 11 mph 1022.1mb 49f 46f
8:18 10 11 mph 1021.9mb 49f 46f
8:12 9
mph
1021.9mb 49f 46f
8:06 9 10 mph 1021.8mb 49f 46f
8:00 9 10 mph 1021.8mb 49f 46f
7:54 9 10 mph 1021.8mb 49f 46f
7:48 8 9 mph 1021.6mb 49f 46f
7:42 8 9 mph 1021.6mb 49f 46f
7:36 6 7 mph 1021.5mb 49f 45f
7:30 6
mph
1021.4mb 49f 45f
7:24 5 6 mph 1021.4mb 49f 45f
7:18 3 6 mph 1021.4mb 49f 45f
7:12 6 7 mph 1021.4mb 49f 45f
7:06 6 8 mph 1021.4mb 49f 45f
7:00 8 10 mph 1021.3mb 49f 45f
6:54 9 11 mph 1021.2mb 49f 45f
6:48 10 11 mph 1021.2mb 49f 45f
6:42 11 13 mph 1021.2mb 49f 45f
6:36 13 14 mph 1021.3mb 49f 45f
6:30 11 13 mph 1021.1mb 49f 44f
6:24 11 13 mph 1021.1mb 49f 44f
6:18 11 13 mph 1021.1mb 49f 44f
6:12 11 13 mph 1021mb 49f 44f
6:06 9 10 mph 1020.9mb 49f 44f
6:00 10
mph
1020.9mb 49f 44f
5:54 9 11 mph 1020.8mb 49f 44f
5:48 10 13 mph 1020.7mb 49f 44f
5:42 10 11 mph 1020.7mb 49f 44f
5:36 9
mph
1020.6mb 49f 44f
5:30 7 8 mph 1020.6mb 49f 44f
5:24 6 7 mph 1020.6mb 49f 43f
5:18 3 5 mph 1020.5mb 49f 43f
5:12 3 6 mph 1020.4mb 49f 43f
5:06 6 8 mph 1020.4mb 49f 44f
5:00 8 9 mph 1020.3mb 49f 44f
4:54 9 10 mph 1020.4mb 49f 44f
4:48 9 11 mph 1020.4mb 49f 44f
4:42 9
mph
1020.5mb 49f 44f
4:36 8 9 mph 1020.5mb 49f 44f
4:30 8 9 mph 1020.3mb 49f 44f
4:24 8 10 mph 1020.3mb 49f 45f
4:18 8
mph
1020.2mb 49f 45f
4:12 7
mph
1020.2mb 49f 45f
4:06 6
mph
1020.1mb 49f 45f
4:00 6
mph
1020.1mb 49f 45f
3:54 5 6 mph 1020mb 49f 45f
3:48 6 7 mph 1019.9mb 49f 45f
3:42 5 7 mph 1019.9mb 49f 45f
3:36 5 6 mph 1019.8mb 49f 45f
3:30 5 6 mph 1019.9mb 49f 45f
3:24 3 5 mph 1019.9mb 49f 45f
3:18 2 3 mph 1019.9mb 49f 45f
3:12 1 3 mph 1019.9mb 49f 45f
3:06 2 3 mph 1019.9mb 49f 45f
3:00 3 5 mph 1020mb 49f 45f
2:54 3 7 mph 1020.1mb 49f 45f
2:48 6 7 mph 1020mb 49f 45f
2:42 6 8 mph 1019.9mb 49f 45f
2:36 8
mph
1020mb 49f 45f
2:30 7 8 mph 1020mb 49f 45f
2:24 7 9 mph 1020.1mb 49f 45f
2:18 8 11 mph 1020.2mb 49f 45f
2:12 9 13 mph 1020.3mb 49f 45f
2:06 11 14 mph 1020.3mb 49f 45f
2:00 13 14 mph 1020.3mb 49f 45f
1:54 13 14 mph 1020.4mb 49f 45f
1:48 13 14 mph 1020.3mb 49f -
1:42 13 14 mph 1020.3mb 49f -
1:36 11 13 mph 1020.3mb 49f -
1:30 10
mph
1020.3mb 49f 45f
1:24 8 9 mph 1020.4mb 49f 45f
1:18 7
mph
1020.3mb 49f 46f
1:12 7
mph
1020.3mb 49f 46f
1:06 7 8 mph 1020.4mb 49f 45f
1:00 6 8 mph 1020.4mb 49f 46f
12:54 7 10 mph 1020.4mb 49f 46f
12:48 8 11 mph 1020.4mb 49f 46f
12:42 10 14 mph 1020.5mb 49f 46f
12:36 8 10 mph 1020.5mb 49f 46f
12:30 8 10 mph 1020.6mb 49f 46f
12:24 9 11 mph 1020.7mb 49f 46f
12:18 9 11 mph 1020.6mb 49f 46f
12:12 10 13 mph 1020.6mb 49f 46f
12:06 11 14 mph 1020.5mb 49f 46f
12:00 13 15 mph 1020.4mb 49f 46f
dom 04/23 11:54 13 14 mph 1020.3mb 49f 46f
11:48 14 16 mph 1020.2mb 49f 47f
11:42 14 15 mph 1020.1mb 49f 46f
11:36 11 14 mph 1020.1mb 49f 47f
11:30 10 13 mph 1020.1mb 49f 46f
11:24 10 13 mph 1020.2mb 49f 47f
11:18 10 13 mph 1020.2mb 49f 46f
11:12 10 11 mph 1020.3mb 49f 46f
11:06 10 11 mph 1020.4mb 49f 47f
11:00 10 11 mph 1020.5mb 49f 47f
10:54 9 10 mph 1020.5mb 48f 47f
10:48 9 11 mph 1020.5mb 48f 47f
10:42 10 13 mph 1020.5mb 48f 47f
10:36 9 11 mph 1020.5mb 48f 47f
10:30 11 14 mph 1020.4mb 48f 47f
10:24 9 11 mph 1020.5mb 48f 47f
10:18 11 14 mph 1020.4mb 48f 47f
10:12 13 14 mph 1020.4mb 48f 47f
10:06 13 14 mph 1020.4mb 48f 47f
10:00 13 14 mph 1020.4mb 48f 47f
9:48 13 15 mph 1020.5mb 48f 47f
9:42 13 14 mph 1020.5mb 48f 47f
9:36 13 14 mph 1020.6mb 48f 47f
9:30 11 14 mph 1020.5mb 48f 47f
9:24 14 16 mph 1020.4mb 48f 47f
9:18 14 16 mph 1020.2mb 48f 47f
9:12 13 17 mph 1020.1mb 48f 47f
9:06 14 16 mph 1020.2mb 48f 48f
9:00 10 13 mph 1020.1mb 48f 48f
8:48 14 16 mph 1020mb 48f 48f
8:42 15 17 mph 1020mb 48f 48f
8:36 15 16 mph 1019.8mb 49f 48f
8:30 16 18 mph 1019.6mb 49f 48f
8:24 18 21 mph 1019.5mb 49f 49f
8:18 20 22 mph 1019.4mb 49f 49f
8:12 21
mph
1019.4mb 49f 49f
8:06 18 20 mph 1019.3mb 49f 49f
8:00 13 16 mph 1019.3mb 48f 49f
7:48 16 20 mph 1019mb 48f 49f
7:42 16 18 mph 1019mb 48f 49f
7:36 17 20 mph 1018.9mb 48f 49f
7:30 17 20 mph 1018.9mb 48f 49f
7:24 18 21 mph 1018.9mb 48f 49f
7:18 20 22 mph 1019mb 48f 49f
7:12 20 22 mph 1018.9mb 48f 49f
7:06 18 21 mph 1018.7mb 48f 49f
7:00 20 21 mph 1018.8mb 48f 49f
6:54 18 20 mph 1018.7mb 48f 49f
6:48 18 21 mph 1018.8mb 48f 49f
6:42 20 22 mph 1018.8mb 48f 49f
6:36 20 22 mph 1018.8mb 48f 49f
6:30 21 23 mph 1018.7mb 47f 49f
6:24 21 22 mph 1018.6mb 47f 49f
6:18 21 23 mph 1018.5mb 47f 50f
6:12 18 22 mph 1018.4mb 47f 50f
6:06 20 22 mph 1018.4mb 47f 50f
6:00 21 22 mph 1018.4mb 47f 50f
5:48 21 23 mph 1018.3mb 46f 50f
5:42 20 22 mph 1018.3mb 46f 50f
5:36 21 23 mph 1018.2mb 46f 50f
5:30 21 23 mph 1018.3mb 46f 50f
5:24 21 22 mph 1018.2mb 46f 50f
5:18 21 25 mph 1018.1mb 46f 50f
5:12 24 25 mph 1017.9mb 46f 50f
5:06 24 26 mph 1018.1mb 46f 50f
5:00 24 25 mph 1017.8mb 46f 50f
4:54 25 26 mph 1018mb 46f 50f
4:48 23 24 mph 1017.8mb 46f 50f
4:42 21 23 mph 1017.8mb 46f 50f
4:36 22 23 mph 1017.9mb 46f 50f
4:30 21 25 mph 1018mb 46f 50f
4:24 22 23 mph 1017.8mb 46f 50f
4:18 21 24 mph 1018mb 46f 50f
4:12 23 24 mph 1017.9mb 46f 50f
4:06 22 23 mph 1017.8mb 46f 50f
4:00 21 22 mph 1017.7mb 46f 50f
3:54 22 23 mph 1018mb 46f 51f
3:48 23
mph
1018mb 46f 51f
3:42 18 22 mph 1017.9mb 46f 51f
3:36 18 22 mph 1017.9mb 46f 51f
3:30 21 22 mph 1017.9mb 47f 51f
3:24 22 26 mph 1017.8mb 47f 51f
3:18 24 28 mph 1017.8mb 48f 50f
3:12 25 26 mph 1017.8mb 48f 50f
3:06 23 24 mph 1017.9mb 48f 50f
3:00 24 25 mph 1018mb 48f 51f
2:54 22 25 mph 1018mb 48f 51f
2:48 21 22 mph 1018mb 48f 51f
2:42 20 22 mph 1018.1mb 49f 51f
2:36 16 17 mph 1018.2mb 49f 52f
2:30 10 11 mph 1018.2mb 49f 55f
2:24 9 10 mph 1018.2mb 49f 54f
2:18 8 9 mph 1018.3mb 49f 55f
2:12 8 10 mph 1018.4mb 49f 55f
2:06 10
mph
1018.5mb 49f 53f
2:00 8
mph
1018.5mb 49f 54f
1:54 8 9 mph 1018.7mb 49f 53f
1:48 9 10 mph 1018.6mb 49f 53f
1:42 9 10 mph 1018.5mb 49f 53f
1:36 10
mph
1018.6mb 49f 53f
1:30 10
mph
1018.6mb 49f 53f
1:24 11 13 mph 1018.6mb 49f 53f
1:18 11
mph
1018.6mb 48f 52f
1:12 11 13 mph 1018.6mb 48f 52f
1:06 10 11 mph 1018.6mb 48f 52f
1:00 7 8 mph 1018.6mb 48f 52f
12:54 5 6 mph 1018.7mb 48f 52f
12:48 3
mph
1018.8mb 48f 52f
12:42 3 5 mph 1018.8mb 48f 52f
12:36 3 6 mph 1018.9mb 49f 53f
12:30 5 6 mph 1018.9mb 49f 52f
12:24 6
mph
1018.9mb 49f 52f
12:18 5 6 mph 1019mb 49f 53f
12:12 3
mph
1019mb 49f 53f
12:06 3 5 mph 1019.1mb 49f 53f
12:00 3 5 mph 1019.1mb 49f 52f
11:54 5 6 mph 1019mb 49f 52f
11:48 6 7 mph 1019mb 49f 51f
11:42 6 8 mph 1019.1mb 49f 51f
11:36 8
mph
1019.1mb 49f 51f
11:30 8
mph
1019.1mb 49f 51f
11:24 7 8 mph 1019.1mb 49f 51f
11:18 6 9 mph 1019mb 49f 51f
11:12 6 9 mph 1019mb 49f 50f
11:06 7 8 mph 1019.1mb 49f 50f
11:00 7 9 mph 1019.2mb 49f 50f
10:54 7 9 mph 1019.2mb 49f 50f
10:48 6 7 mph 1019.2mb 49f 50f
10:42 5 6 mph 1019.1mb 49f 50f
10:36 5 8 mph 1019.1mb 49f 53f
10:30 7 9 mph 1019.1mb 49f 51f
10:24 9 13 mph 1019mb 49f 49f
10:18 7 9 mph 1019mb 49f 50f
10:12 9 10 mph 1019mb 49f 50f
10:06 8 11 mph 1018.9mb 49f 51f
10:00 11 13 mph 1018.9mb 49f 50f
9:54 9 14 mph 1018.8mb 49f 50f
9:48 10 15 mph 1018.7mb 49f 50f
9:42 11 14 mph 1018.6mb 49f 50f
9:36 9 13 mph 1018.6mb 49f 49f
9:30 14 15 mph 1018.6mb 48f 49f
9:24 14 15 mph 1018.6mb 49f 49f
9:18 13 17 mph 1018.7mb 48f 49f
9:12 15 20 mph 1018.6mb 48f 49f
9:06 14 17 mph 1018.5mb 48f 48f
9:00 14 17 mph 1018.6mb 48f 48f
8:54 15 18 mph 1018.6mb 48f 48f
8:48 16 21 mph 1018.6mb 48f 48f
8:42 16 20 mph 1018.5mb 48f 48f
8:36 15 18 mph 1018.5mb 48f 47f
8:30 15 20 mph 1018.6mb 48f 47f
8:24 17 20 mph 1018.6mb 48f 47f
8:18 15 17 mph 1018.6mb 48f 47f
8:12 15 18 mph 1018.4mb 48f 47f
8:06 15 18 mph 1018.2mb 48f 46f
8:00 13 16 mph 1018.2mb 48f 46f
7:54 14 15 mph 1018.2mb 48f 45f
7:48 14 16 mph 1018.2mb 48f 45f
7:42 14 16 mph 1018.1mb 48f 45f
7:36 13 14 mph 1018mb 48f 45f
7:30 13 14 mph 1018.2mb 47f 44f
7:24 13 15 mph 1018mb 47f 44f
7:18 13 14 mph 1017.8mb 47f 44f
7:12 11 14 mph 1017.9mb 47f 44f
7:06 11 13 mph 1017.7mb 47f 44f
7:00 13 14 mph 1017.6mb 47f 44f
6:54 10 11 mph 1017.5mb 47f 44f
6:48 9 10 mph 1017.5mb 46f 44f
6:42 9 10 mph 1017.3mb 46f 44f
6:36 8 10 mph 1017.3mb 46f 44f
6:30 9 11 mph 1017.2mb 46f 44f
6:24 9 13 mph 1016.9mb 46f 44f
6:18 10 11 mph 1016.9mb 46f 44f
6:12 9 11 mph 1016.9mb 46f 44f
6:06 9 10 mph 1016.9mb 46f 44f
6:00 8 11 mph 1016.8mb 46f 44f
5:54 9 11 mph 1016.7mb 46f 44f
5:48 9 11 mph 1016.6mb 46f 44f
5:42 9 10 mph 1016.6mb 46f 44f
5:36 9 11 mph 1016.6mb 46f 44f
5:30 8 11 mph 1016.4mb 46f 44f
5:24 10 11 mph 1016.3mb 46f 45f
5:18 9 11 mph 1016.1mb 46f 45f
5:12 9 13 mph 1016.1mb 46f 44f
5:06 8 9 mph 1016.1mb 46f 44f
5:00 8 10 mph 1016.1mb 46f 44f
4:54 9 10 mph 1016.1mb 46f 45f
4:48 9 10 mph 1016.2mb 46f 45f
4:42 7 9 mph 1016.2mb 46f 44f
4:36 6 8 mph 1016.3mb 47f 44f
4:30 7 9 mph 1016.1mb 47f 44f
4:24 7 8 mph 1016mb 47f 44f
4:18 7
mph
1016.1mb 47f 45f
4:12 6 7 mph 1016mb 47f 44f
4:06 7 8 mph 1015.9mb 47f 44f
4:00 8 9 mph 1015.7mb 47f 44f
3:54 7 8 mph 1015.8mb 47f 44f
3:48 6 7 mph 1015.9mb 47f 44f
3:42 5 6 mph 1015.8mb 48f 44f
3:36 3 6 mph 1015.9mb 48f 44f
3:30 5 6 mph 1015.8mb 48f 44f
3:24 3 6 mph 1015.7mb 48f 44f
3:18 5 6 mph 1015.6mb 48f 44f
3:12 5 6 mph 1015.5mb 48f 44f
3:06 5 6 mph 1015.7mb 48f 44f
3:00 2 5 mph 1015.7mb 48f 44f
2:54 3 5 mph 1015.7mb 48f 44f
2:48 3 5 mph 1015.8mb 48f 44f
2:42 5 6 mph 1015.7mb 48f 44f
2:36 5 6 mph 1015.7mb 48f 44f
2:30 5 7 mph 1015.7mb 48f 44f
2:24 5 6 mph 1015.5mb 48f 44f
2:18 5 6 mph 1015.6mb 48f 44f
2:12 5 6 mph 1015.6mb 48f 44f
2:06 6 7 mph 1015.6mb 48f 44f
2:00 7 8 mph 1015.7mb 48f 44f
1:54 7 8 mph 1015.7mb 48f 44f
1:48 6 8 mph 1015.8mb 48f 44f
1:42 6 8 mph 1015.8mb 48f 44f
1:36 6 9 mph 1015.7mb 48f 44f
1:30 8 10 mph 1015.8mb 48f 44f
1:24 9 10 mph 1015.8mb 48f 44f
1:18 8 9 mph 1015.8mb 48f 44f
1:12 6 7 mph 1015.9mb 48f 44f
1:06 6
mph
1015.8mb 48f 44f
1:00 5 6 mph 1015.7mb 49f 44f
12:54 5 6 mph 1015.6mb 49f 44f
12:48 5 6 mph 1015.5mb 49f 44f
12:42 5
mph
1015.5mb 49f 44f
12:36 3 5 mph 1015.5mb 49f 44f
12:30 3
mph
1015.5mb 49f 44f
12:24 2 3 mph 1015.5mb 49f 44f
12:18 3
mph
1015.3mb 49f 44f
12:12 3 5 mph 1015.2mb 49f 44f
12:06 3 6 mph 1015.1mb 49f 44f
12:00 6
mph
1014.9mb 49f 44f
sáb 04/22 11:54 5 6 mph 1015mb 49f 44f
11:48 3 5 mph 1015.1mb 49f 45f
11:42 5
mph
1015mb 49f 45f
11:36 5 6 mph 1014.8mb 49f 45f
11:30 5 6 mph 1014.8mb 49f 45f
11:24 5 6 mph 1014.9mb 49f 45f
11:18 5 6 mph 1015.1mb 49f 45f
11:12 3 6 mph 1015mb 49f 45f
11:06 5 6 mph 1014.9mb 49f 45f
11:00 6 7 mph 1014.6mb 49f 45f
10:54 6 8 mph 1014.6mb 49f 45f
10:48 7 8 mph 1014.8mb 49f 45f
10:42 7 9 mph 1014.8mb 49f 45f
10:36 7 9 mph 1014.7mb 49f 45f
10:30 7 8 mph 1014.7mb 49f 45f
10:24 6 8 mph 1014.8mb 49f 45f
10:18 7 8 mph 1014.8mb 49f 46f
10:12 6 8 mph 1014.7mb 49f 46f
10:06 6 8 mph 1014.7mb 49f 46f
10:00 7
mph
1014.8mb 49f 46f
9:48 7 9 mph 1014.7mb 49f 46f
9:42 8 10 mph 1014.7mb 49f 46f
9:36 9 11 mph 1014.7mb 49f 46f
9:30 10 11 mph 1014.7mb 49f 46f
9:24 8 9 mph 1014.8mb 49f 46f
9:18 7 9 mph 1014.7mb 49f 46f
9:12 8 9 mph 1014.7mb 49f 46f
9:06 8 10 mph 1014.7mb 49f 46f
9:00 7 9 mph 1014.7mb 49f 46f
8:48 6 7 mph 1014.5mb 49f 46f
8:42 7 9 mph 1014.4mb 49f 46f
8:36 8 9 mph 1014.4mb 49f 46f
8:30 7 9 mph 1014.4mb 49f 46f
8:24 7 9 mph 1014.2mb 49f 46f
8:18 8 10 mph 1014.3mb 49f 46f
8:12 6
mph
1014.3mb 49f 46f
8:06 6 9 mph 1014.1mb 49f 46f
8:00 9 11 mph 1013.9mb 49f 46f
7:48 10 13 mph 1013.7mb 50f 46f
7:42 9 11 mph 1013.8mb 50f 46f
7:36 9 11 mph 1013.6mb 50f 46f
7:30 10 11 mph 1013.6mb 49f 46f
7:24 9 11 mph 1013.7mb 49f 46f
7:12 9 10 mph 1013.6mb 49f 46f
7:06 8 9 mph 1013.6mb 49f 46f
7:00 8 10 mph 1013.5mb 49f 46f
6:48 8 10 mph 1013.3mb 49f 46f
6:42 9 10 mph 1013.4mb 49f 46f
6:36 10 13 mph 1013.4mb 49f 46f
6:30 9 11 mph 1013.4mb 49f 46f
6:24 9 14 mph 1013.6mb 49f 46f
6:18 10 14 mph 1013.5mb 47f 46f
6:12 10 14 mph 1013.4mb 47f 46f
6:06 11 14 mph 1013.3mb 47f 46f
6:00 11 15 mph 1013.4mb 47f 46f
5:48 11 16 mph 1013.3mb 47f 46f
5:42 13 16 mph 1013.2mb 47f 46f
5:36 13 14 mph 1013.1mb 47f 46f
5:30 11 15 mph 1013.2mb 47f 46f
5:24 13 14 mph 1013.2mb 48f 46f
5:18 11 14 mph 1013.3mb 48f 46f
5:12 13 14 mph 1013.3mb 48f 46f
5:06 13 15 mph 1013.3mb 48f 47f
5:00 14 16 mph 1013.3mb 48f 46f
4:54 11 16 mph 1013.1mb 48f 46f
4:48 15 16 mph 1013.1mb 48f 46f
4:42 15 18 mph 1013.1mb 48f 46f
4:36 15 18 mph 1012.9mb 49f 46f
4:30 15 17 mph 1012.8mb 49f 46f
4:24 17 21 mph 1012.8mb 49f 47f
4:18 16 18 mph 1012.9mb 49f 47f
4:12 14 17 mph 1013mb 49f 46f
4:06 16 21 mph 1012.9mb 49f 47f
4:00 18 22 mph 1012.8mb 49f 47f
3:54 15 18 mph 1012.7mb 49f 46f
3:48 18 21 mph 1012.6mb 49f 46f
3:42 11 15 mph 1012.4mb 49f 47f
3:36 13 15 mph 1012.4mb 49f 46f
3:30 14 16 mph 1012.4mb 49f 46f
3:24 15 18 mph 1012.4mb 49f 46f
3:18 14 16 mph 1012.2mb 48f 46f
3:12 11 15 mph 1012.3mb 48f 46f
3:06 13 16 mph 1012.3mb 49f 46f
3:00 14 15 mph 1012.3mb 49f 46f
2:54 13 16 mph 1012.2mb 49f 46f
2:48 14 16 mph 1012.1mb 49f 46f
2:42 14 17 mph 1012.3mb 50f 46f
2:36 14 16 mph 1012.4mb 50f 46f
2:30 14 16 mph 1012.5mb 50f 46f
2:24 11 14 mph 1012.5mb 50f 46f
2:18 10 14 mph 1012.6mb 50f 46f
2:12 13 16 mph 1012.7mb 50f 46f
2:06 13 15 mph 1012.7mb 50f 46f
2:00 14 17 mph 1012.7mb 50f 46f
1:54 14 17 mph 1012.8mb 50f 46f
1:48 14 16 mph 1013mb 51f 46f
1:42 15 18 mph 1013.1mb 51f 46f
1:36 15 17 mph 1013.2mb 51f 46f
1:30 16 20 mph 1013.1mb 51f 46f
1:24 16 18 mph 1012.9mb 51f 46f
1:18 14 18 mph 1013.2mb 51f 46f
1:12 15 18 mph 1013.3mb 51f 46f
1:06 15 17 mph 1013.5mb 51f 46f
1:00 14 16 mph 1013.7mb 50f 46f
12:54 11 14 mph 1013.6mb 50f 46f
12:48 13 14 mph 1013.6mb 50f 46f
12:42 11 14 mph 1013.6mb 50f 46f
12:36 11 14 mph 1013.5mb 50f 46f
12:30 11 14 mph 1013.5mb 50f 46f
12:24 13 14 mph 1013.4mb 50f 46f
12:18 10 14 mph 1013.4mb 50f 46f
12:12 11 13 mph 1013.4mb 51f 46f
12:06 11 14 mph 1013.6mb 51f 46f
12:00 9 13 mph 1013.6mb 51f 46f
11:54 10 11 mph 1013.5mb 50f 46f
11:48 11 14 mph 1013.5mb 51f 46f
11:42 14 15 mph 1013.5mb 51f 46f
11:36 14 16 mph 1013.4mb 51f 46f
11:30 11 15 mph 1013.3mb 51f 46f
11:24 14 18 mph 1013.3mb 51f 46f
11:18 17 21 mph 1013.4mb 51f 46f
11:12 17 22 mph 1013.5mb 51f 46f
11:06 20 22 mph 1013.5mb 51f 46f
11:00 18 22 mph 1013.4mb 51f 46f
10:54 16 21 mph 1013.6mb 51f 46f
10:48 15 20 mph 1013.6mb 51f 46f
10:42 18 22 mph 1013.6mb 51f 46f
10:36 18 22 mph 1013.6mb 51f 46f
10:30 16 21 mph 1013.3mb 51f 46f
10:24 16 21 mph 1013.3mb 51f 46f
10:18 14 20 mph 1013.4mb 51f 46f
10:12 17 21 mph 1013.2mb 51f 46f
10:06 16 18 mph 1013.2mb 51f 46f
10:00 18 22 mph 1013mb 51f 46f
9:54 21 23 mph 1013.1mb 51f 45f
9:48 14 20 mph 1013.3mb 51f 46f
9:42 17 22 mph 1013.2mb 51f 46f
9:36 16 20 mph 1013.3mb 51f 45f
9:30 14 18 mph 1013.2mb 51f 46f
9:24 14 18 mph 1013.1mb 51f 45f
9:18 16 21 mph 1013.2mb 51f 46f
9:12 16 20 mph 1013.3mb 51f 45f
9:06 17 21 mph 1013.4mb 51f 45f
9:00 14 16 mph 1013.5mb 51f 45f
8:54 14 18 mph 1013.3mb 51f 45f
8:48 14 17 mph 1013.4mb 51f 45f
8:42 13 15 mph 1013.4mb 51f 45f
8:36 14 16 mph 1013.3mb 51f 45f
8:30 11 17 mph 1013.6mb 51f 45f
8:24 13 15 mph 1013.5mb 51f 45f
8:18 13 16 mph 1013.5mb 51f 45f
8:12 10 15 mph 1013.6mb 51f 45f
8:06 14 16 mph 1013.4mb 51f 45f
8:00 11 17 mph 1013.5mb 51f 45f
7:54 14 17 mph 1013.2mb 51f 45f
7:48 13 15 mph 1013.2mb 51f 45f
7:42 14 17 mph 1013mb 51f 45f
7:36 11 15 mph 1013.2mb 51f 45f
7:30 14 15 mph 1013.3mb 51f 44f
7:24 14 20 mph 1013.2mb 51f 45f
7:18 16 18 mph 1013.2mb 51f 44f
7:12 15 18 mph 1013.3mb 51f 44f
7:06 15 18 mph 1013.1mb 51f 44f
7:00 15 21 mph 1013.3mb 51f 45f
6:54 14 18 mph 1013.3mb 51f 44f
6:48 14 21 mph 1013.3mb 51f 44f
6:42 14 20 mph 1013.2mb 51f 45f
6:36 14 17 mph 1013.3mb 51f 44f
6:30 13 16 mph 1013.1mb 51f 44f
6:24 14 17 mph 1013.6mb 51f 45f
6:18 13 17 mph 1013.5mb 51f 45f
6:12 13 18 mph 1013.1mb 51f 44f
6:06 13 16 mph 1012.9mb 51f 45f
6:00 11 15 mph 1012.8mb 51f 45f
5:54 13 16 mph 1012.7mb 51f 44f
5:48 13 15 mph 1012.8mb 51f 45f
5:42 11 15 mph 1012.9mb 50f 45f
5:36 14 16 mph 1013mb 49f 45f
5:30 14 18 mph 1012.9mb 49f 44f
5:24 14 15 mph 1013mb 49f 45f
5:18 11 16 mph 1013.1mb 49f 45f
5:12 13 17 mph 1013mb 49f 45f
5:06 14 16 mph 1013mb 49f 45f
5:00 14 16 mph 1013.1mb 49f 45f
4:54 14 16 mph 1012.9mb 49f 45f
4:48 13 15 mph 1013mb 49f 45f
4:42 14 16 mph 1012.9mb 49f 45f
4:36 11 15 mph 1013mb 49f 45f
4:30 14 18 mph 1013.1mb 49f 45f
4:24 13 15 mph 1013.2mb 49f 45f
4:18 11 16 mph 1013.1mb 49f 45f
4:12 13 16 mph 1013.1mb 49f 45f
4:06 11 15 mph 1013.2mb 49f 45f
4:00 13 15 mph 1013.2mb 49f 45f
3:54 10 14 mph 1013.3mb 49f 45f
3:48 13 15 mph 1013.4mb 50f 45f
3:42 14 16 mph 1013.6mb 50f 46f
3:36 14 16 mph 1013.6mb 51f 46f
3:30 11 15 mph 1013.6mb 51f 46f
3:24 14 16 mph 1013.5mb 51f 46f
3:18 14 17 mph 1013.4mb 51f 46f
3:12 14 17 mph 1013.1mb 51f 46f
3:06 11 15 mph 1012.9mb 51f 46f
3:00 11 15 mph 1013mb 51f 46f
2:54 11 14 mph 1013mb 51f 46f
2:48 9 11 mph 1013.2mb 51f 46f
2:42 9 14 mph 1013.3mb 51f 46f
2:36 11 15 mph 1013.3mb 51f 46f
2:30 13 15 mph 1013.4mb 51f 46f
2:24 11 14 mph 1013.4mb 51f 46f
2:18 11 14 mph 1013.5mb 51f 46f
2:12 13 14 mph 1013.4mb 51f 46f
2:06 10 13 mph 1013.4mb 50f 46f
2:00 9 11 mph 1013.4mb 50f 47f
1:54 8 13 mph 1013.5mb 51f 47f
1:48 9 11 mph 1013.4mb 51f 47f
1:42 10 13 mph 1013.6mb 51f 46f
1:36 10 11 mph 1013.6mb 51f 47f
1:30 8 11 mph 1013.5mb 51f 47f
1:24 10 13 mph 1013.6mb 51f 47f
1:18 10 13 mph 1013.7mb 51f 47f
1:12 9 11 mph 1013.8mb 51f 47f
1:06 8 9 mph 1013.9mb 51f 47f
1:00 7 9 mph 1013.9mb 51f 47f
12:54 7 8 mph 1014mb 51f 47f
12:48 6 7 mph 1014.1mb 51f 47f
12:42 6 8 mph 1014.2mb 51f 47f
12:36 8 9 mph 1014.3mb 51f 47f
12:30 7 9 mph 1014.5mb 51f 47f
12:24 8 9 mph 1014.4mb 51f 47f
12:18 7 9 mph 1014.5mb 51f 47f
12:12 7 8 mph 1014.4mb 51f 47f
12:06 7 8 mph 1014.3mb 51f 47f
12:00 6 7 mph 1014.2mb 51f 47f
vie 04/21 11:54 6 7 mph 1014.2mb 51f 47f
11:48 6 7 mph 1014.2mb 51f 47f
11:42 6 7 mph 1014.3mb 51f 47f
11:36 5 6 mph 1014.4mb 51f 47f
11:30 5 6 mph 1014.5mb 51f 47f
11:24 6 8 mph 1014.4mb 51f 47f
11:18 6 7 mph 1014.5mb 51f 47f
11:12 7 10 mph 1014.5mb 51f 47f
11:06 8 10 mph 1014.4mb 51f 47f
11:00 7 9 mph 1014.6mb 51f 47f
10:54 7 9 mph 1014.7mb 51f 47f
10:48 7 9 mph 1014.8mb 51f 47f
10:42 7 8 mph 1014.7mb 51f 47f
10:36 5 7 mph 1014.8mb 51f 47f
10:30 6 7 mph 1014.9mb 51f 47f
10:24 6 8 mph 1015mb 51f 47f
10:18 6 7 mph 1015mb 51f 47f
10:12 6 7 mph 1014.9mb 51f 47f
10:06 6 7 mph 1015.3mb 51f 47f
10:00 6 9 mph 1015.3mb 51f 47f
9:48 6 8 mph 1015.3mb 51f 47f
9:42 6 9 mph 1015.4mb 51f 47f
9:36 8 9 mph 1015.2mb 51f 47f
9:30 6 7 mph 1015.1mb 51f 47f
9:24 7 10 mph 1015.1mb 51f 47f
9:18 8 10 mph 1015mb 51f 47f
9:12 8 9 mph 1015.2mb 51f 47f
9:06 6 7 mph 1015.3mb 51f 47f
9:00 5 7 mph 1015.3mb 51f 47f
8:48 8 10 mph 1015mb 51f 47f
8:42 9 11 mph 1015mb 51f 47f
8:36 8 9 mph 1015.1mb 51f 47f
8:30 8 9 mph 1015.1mb 51f 47f
8:24 7 8 mph 1015mb 51f 47f
8:18 7 9 mph 1015mb 51f 47f
8:12 7 9 mph 1015.1mb 51f 47f
8:06 9 10 mph 1015mb 51f 47f
8:00 9 10 mph 1015mb 51f 47f
7:48 8 10 mph 1014.7mb 51f 47f
7:42 8 9 mph 1014.6mb 51f 47f
7:36 8 10 mph 1014.5mb 51f 47f
7:30 9 10 mph 1014.4mb 51f 47f
7:24 9 11 mph 1014.3mb 51f 47f
7:12 6 10 mph 1014.2mb 51f 47f
7:06 10 13 mph 1014mb 51f 47f
7:00 11 15 mph 1013.9mb 51f 47f
6:48 15 16 mph 1013.7mb 50f 47f
6:42 10 13 mph 1014.2mb 50f 47f
6:36 10 14 mph 1014.3mb 50f 47f
6:30 10 13 mph 1014.5mb 50f 47f
6:24 9 14 mph 1014.8mb 50f 47f
6:18 11 13 mph 1014.7mb 50f 47f
6:12 9 11 mph 1015mb 50f 47f
6:06 9 10 mph 1015.1mb 51f 47f
6:00 7 8 mph 1015.3mb 51f 47f
5:48 8 10 mph 1015.2mb 51f 47f
5:42 8 10 mph 1015.2mb 51f 47f
5:36 9 11 mph 1015mb 51f 47f
5:30 9 10 mph 1015.1mb 51f 47f
5:24 7 13 mph 1015mb 50f 47f
5:18 11 14 mph 1014.8mb 50f 47f
5:12 10 13 mph 1014.7mb 50f 47f
5:06 10 13 mph 1014.9mb 50f 47f
5:00 9 14 mph 1014.8mb 50f 47f
4:54 11 15 mph 1014.7mb 50f 47f
4:48 14 16 mph 1014.6mb 50f 47f
4:42 10 15 mph 1014.8mb 50f 47f
4:36 11 15 mph 1014.9mb 50f 47f
4:30 13 15 mph 1014.8mb 50f 47f
4:24 15 17 mph 1014.8mb 50f 47f
4:18 14 18 mph 1014.8mb 50f 47f
4:12 16 18 mph 1014.6mb 50f 47f
4:06 17 21 mph 1014.7mb 50f 47f
4:00 14 17 mph 1014.7mb 50f 47f
3:54 16 22 mph 1014.9mb 50f 47f
3:48 16 18 mph 1014.7mb 50f 47f
3:42 15 16 mph 1014.8mb 50f 47f
3:36 14 20 mph 1015mb 50f 47f
3:30 14 17 mph 1015.1mb 50f 47f
3:24 11 14 mph 1015.2mb 49f 47f
3:18 15 20 mph 1015.3mb 49f 47f
3:12 14 17 mph 1015.3mb 49f 47f
3:06 14 17 mph 1015.2mb 49f 47f
3:00 13 16 mph 1015.2mb 49f 47f
2:54 13 18 mph 1015.3mb 49f 47f
2:48 16 18 mph 1015.4mb 49f 47f
2:42 15 21 mph 1015.4mb 50f 47f
2:36 17 22 mph 1015.4mb 50f 47f
2:30 16 22 mph 1015.5mb 50f 47f
2:24 15 21 mph 1015.5mb 50f 47f
2:18 17 20 mph 1015.5mb 51f 47f
2:12 14 20 mph 1015.7mb 51f 47f
2:06 14 17 mph 1015.9mb 51f 47f
2:00 13 18 mph 1016.3mb 51f 47f
1:54 16 20 mph 1016.2mb 51f 47f
1:48 15 20 mph 1016.1mb 51f 47f
1:42 16 20 mph 1016mb 51f 47f
1:36 17 22 mph 1016mb 51f 46f
1:30 15 20 mph 1016.1mb 51f 46f
1:24 16 20 mph 1016.1mb 51f 46f
1:18 15 17 mph 1016.1mb 51f 46f
1:12 14 17 mph 1016.3mb 50f 46f
1:06 15 18 mph 1016.5mb 50f 46f
1:00 14 16 mph 1016.6mb 51f 46f
12:54 13 16 mph 1016.7mb 51f 46f
12:48 13 17 mph 1016.8mb 51f 46f
12:42 15 20 mph 1016.9mb 51f 46f
12:36 20 22 mph 1016.7mb 51f 46f
12:30 16 18 mph 1016.6mb 51f 46f
12:24 15 21 mph 1016.7mb 51f 46f
12:18 20 24 mph 1016.5mb 51f 46f
12:12 20 22 mph 1016.3mb 51f 46f
12:06 17 21 mph 1016.3mb 51f 46f
12:00 14 17 mph 1016.5mb 51f 46f
11:54 15 18 mph 1016.8mb 51f 46f
11:48 14 18 mph 1016.8mb 51f 46f
11:42 15 17 mph 1016.9mb 51f 46f
11:36 13 15 mph 1017.1mb 51f 46f
11:30 13 18 mph 1017mb 51f 46f
11:24 17 20 mph 1017mb 51f 46f
11:18 14 22 mph 1017.1mb 51f 46f
11:12 17 21 mph 1017mb 51f 46f
11:06 14 16 mph 1017mb 51f 47f
11:00 14 20 mph 1017.2mb 51f 47f
10:54 16 20 mph 1017.3mb 51f 47f